Beni-Mellal, Morocco
Current Conditions -  °F | °C
As of 8:00 AM on Saturday 20 Dec 2014 (Local Time) from GMMN Reporting Station
Moderate Fog Moderate Fog  
Wind Chill: 42°   Ceiling: 200
Heat Index: 45°   Visibility: 0.21mi
Dew Point: 45°   Wind: 5mph
Humidity: 100%   Direction: 60°ENE
Pressure: 30.42"   Gusts: NA
Location:  32.35°N, 6.37°W
Report Text: GMMN 200700Z 06004KT 0350 R35R/0400V0500N FG BKN002 07/07 Q1030 NOSIG
Loading
Personal Weather Stations






























Interactive Weather Map New forecast layout! Learn more

10-Day Weather Forecast

Advertisements
Track Severe Weather on mobile